Time;durP1;ratioP1;P1;durP2;ratioP2;P2;SDS_P1;SDS_P2;PMS_P1;PMS_P2;Temp;Humidity;BMP_temperature;BMP_pressure;BME280_temperature;BME280_humidity;BME280_pressure;Samples;Min_cycle;Max_cycle;Signal;HPM_P1;HPM_P2
2022/04/14 00:00:23;;;;;;;13.60;12.25;;;11.00;99.90;;;;;;4936237;28;94296;-38
2022/04/14 00:02:49;;;;;;;18.65;12.38;;;11.00;99.90;;;;;;4936167;28;94839;-34
2022/04/14 00:05:15;;;;;;;17.08;12.57;;;11.10;99.90;;;;;;4935810;28;94176;-36
2022/04/14 00:07:41;;;;;;;13.18;11.48;;;11.00;99.90;;;;;;4938215;28;92748;-34
2022/04/14 00:10:07;;;;;;;14.88;11.30;;;11.00;99.90;;;;;;4940062;28;93417;-37
2022/04/14 00:12:33;;;;;;;16.67;12.23;;;11.00;99.90;;;;;;4939454;28;95082;-38
2022/04/14 00:14:58;;;;;;;16.80;12.48;;;11.00;99.90;;;;;;4939668;28;94996;-35
2022/04/14 00:17:24;;;;;;;14.10;11.75;;;11.00;99.90;;;;;;4939413;28;94143;-35
2022/04/14 00:19:50;;;;;;;15.82;11.60;;;11.00;99.90;;;;;;4940056;28;92097;-35
2022/04/14 00:22:16;;;;;;;18.27;11.77;;;11.00;99.90;;;;;;4939131;28;96161;-36
2022/04/14 00:24:41;;;;;;;13.88;11.68;;;10.90;99.90;;;;;;4939221;28;94476;-35
2022/04/14 00:27:07;;;;;;;14.43;10.63;;;10.90;99.90;;;;;;4987098;22;94722;-33
2022/04/14 00:29:32;;;;;;;13.98;10.90;;;10.90;99.90;;;;;;4939377;28;92143;-34
2022/04/14 00:31:58;;;;;;;11.85;9.82;;;10.90;99.90;;;;;;4939711;28;95335;-34
2022/04/14 00:34:23;;;;;;;13.88;10.65;;;10.90;99.90;;;;;;4939937;28;94538;-34
2022/04/14 00:36:49;;;;;;;16.40;9.35;;;10.90;99.90;;;;;;4939444;28;94404;-35
2022/04/14 00:39:14;;;;;;;14.15;10.18;;;10.90;99.90;;;;;;4939091;28;97386;-36
2022/04/14 00:41:40;;;;;;;12.85;11.52;;;10.90;99.90;;;;;;4938568;28;95731;-33
2022/04/14 00:44:06;;;;;;;15.52;10.00;;;10.90;99.90;;;;;;4938982;28;95506;-34
2022/04/14 00:46:32;;;;;;;11.88;10.40;;;10.90;99.90;;;;;;4938622;28;92184;-35
2022/04/14 00:48:57;;;;;;;19.52;10.75;;;10.90;99.90;;;;;;4939040;28;93420;-34
2022/04/14 00:51:23;;;;;;;14.18;11.75;;;10.90;99.90;;;;;;4938508;28;94731;-34
2022/04/14 00:53:49;;;;;;;15.70;12.13;;;10.90;99.90;;;;;;4938792;28;94115;-34
2022/04/14 00:56:15;;;;;;;16.98;12.48;;;10.90;99.90;;;;;;4939203;28;94006;-37
2022/04/14 00:58:41;;;;;;;17.58;12.68;;;10.90;99.90;;;;;;4938422;28;92034;-36
2022/04/14 01:01:07;;;;;;;14.73;12.82;;;10.90;99.90;;;;;;4938731;28;95454;-37
2022/04/14 01:03:36;;;;;;;16.08;13.00;;;11.00;99.90;;;;;;4938146;28;93599;-37
2022/04/14 01:06:03;;;;;;;16.23;13.75;;;11.00;99.90;;;;;;4938452;28;95734;-36
2022/04/14 01:08:32;;;;;;;17.08;13.90;;;11.00;99.90;;;;;;4938995;28;93109;-37
2022/04/14 01:10:58;;;;;;;17.77;14.30;;;11.00;99.90;;;;;;4937902;28;94777;-37
2022/04/14 01:13:24;;;;;;;21.45;14.48;;;11.00;99.90;;;;;;4939237;28;96416;-33
2022/04/14 01:15:56;;;;;;;18.40;14.32;;;11.00;99.90;;;;;;4938421;28;92601;-34
2022/04/14 01:18:22;;;;;;;16.35;14.65;;;11.00;99.90;;;;;;4938541;28;94041;-35
2022/04/14 01:20:47;;;;;;;19.73;14.43;;;11.00;99.90;;;;;;4938233;28;95068;-34
2022/04/14 01:23:16;;;;;;;18.20;14.95;;;10.90;99.90;;;;;;4939100;28;94851;-34
2022/04/14 01:25:42;;;;;;;19.27;15.32;;;10.90;99.90;;;;;;4920608;28;93625;-36
2022/04/14 01:28:07;;;;;;;15.93;14.15;;;10.90;99.90;;;;;;4938213;28;94528;-37
2022/04/14 01:30:35;;;;;;;22.67;15.82;;;10.80;99.90;;;;;;4938726;28;95894;-34
2022/04/14 01:33:00;;;;;;;20.97;14.73;;;10.70;99.90;;;;;;4938100;28;96927;-35
2022/04/14 01:35:26;;;;;;;18.63;14.60;;;10.70;99.90;;;;;;4937927;28;94091;-35
2022/04/14 01:37:51;;;;;;;19.38;14.15;;;10.70;99.90;;;;;;4938051;28;93482;-34
2022/04/14 01:40:17;;;;;;;16.42;13.45;;;10.60;99.90;;;;;;4937607;28;94465;-36
2022/04/14 01:42:42;;;;;;;20.42;14.55;;;10.60;99.90;;;;;;4938398;28;94813;-34
2022/04/14 01:45:10;;;;;;;25.05;15.77;;;10.50;99.90;;;;;;4937524;28;92812;-33
2022/04/14 01:47:43;;;;;;;21.73;15.82;;;10.50;99.90;;;;;;4937965;28;93588;-38
2022/04/14 01:50:12;;;;;;;18.08;15.85;;;10.40;99.90;;;;;;4937956;28;95502;-36
2022/04/14 01:52:38;;;;;;;22.58;16.20;;;10.40;99.90;;;;;;4937275;28;94591;-35
2022/04/14 01:55:05;;;;;;;17.10;13.38;;;10.40;99.90;;;;;;4937963;28;95516;-38
2022/04/14 01:57:30;;;;;;;18.67;15.50;;;10.30;99.90;;;;;;4937955;28;94757;-37
2022/04/14 02:00:00;;;;;;;20.67;16.25;;;10.30;99.90;;;;;;4937718;28;94962;-32
2022/04/14 02:02:26;;;;;;;22.45;16.15;;;10.30;99.90;;;;;;4937294;28;94517;-32
2022/04/14 02:04:52;;;;;;;23.75;17.45;;;10.20;99.90;;;;;;4937948;28;92954;-35
2022/04/14 02:07:18;;;;;;;22.38;16.63;;;10.20;99.90;;;;;;4938142;28;94381;-32
2022/04/14 02:09:44;;;;;;;18.80;16.25;;;10.10;99.90;;;;;;4937514;28;94646;-38
2022/04/14 02:12:11;;;;;;;20.63;16.35;;;10.00;99.90;;;;;;4938277;28;94623;-33
2022/04/14 02:14:38;;;;;;;19.73;15.07;;;10.00;99.90;;;;;;4937132;28;92880;-36
2022/04/14 02:17:04;;;;;;;19.73;16.50;;;9.90;99.90;;;;;;4937651;28;94164;-38
2022/04/14 02:19:29;;;;;;;21.48;16.45;;;9.90;99.90;;;;;;4937519;28;95202;-34
2022/04/14 02:21:58;;;;;;;22.75;19.05;;;9.90;99.90;;;;;;4937163;28;95394;-34
2022/04/14 02:24:27;;;;;;;23.70;20.27;;;10.00;99.90;;;;;;4937748;28;92953;-33
2022/04/14 02:26:53;;;;;;;26.50;21.40;;;10.00;99.90;;;;;;4937095;28;94425;-37
2022/04/14 02:29:19;;;;;;;25.73;19.20;;;10.00;99.90;;;;;;4937410;28;94680;-36
2022/04/14 02:31:45;;;;;;;25.60;21.42;;;10.10;99.90;;;;;;4935699;28;94324;-34
2022/04/14 02:34:10;;;;;;;28.88;21.92;;;10.10;99.90;;;;;;4938025;28;92066;-38
2022/04/14 02:36:36;;;;;;;26.50;22.10;;;10.10;99.90;;;;;;4937615;28;92817;-34
2022/04/14 02:39:02;;;;;;;26.75;22.40;;;10.20;99.90;;;;;;4937144;28;94650;-40
2022/04/14 02:41:28;;;;;;;46.40;27.20;;;10.20;99.90;;;;;;4937051;28;94753;-36
2022/04/14 02:43:53;;;;;;;31.77;22.95;;;10.20;99.90;;;;;;4936971;28;95291;-36
2022/04/14 02:46:19;;;;;;;27.08;23.42;;;10.20;99.90;;;;;;4937203;28;92918;-36
2022/04/14 02:48:44;;;;;;;26.52;23.67;;;10.20;99.90;;;;;;4936057;28;93554;-37
2022/04/14 02:51:10;;;;;;;27.20;23.95;;;10.20;99.90;;;;;;4936560;28;94772;-38
2022/04/14 02:53:35;;;;;;;27.95;23.70;;;10.20;99.90;;;;;;4937117;28;94523;-37
2022/04/14 02:56:02;;;;;;;30.25;23.45;;;10.20;99.90;;;;;;4937195;28;94064;-37
2022/04/14 02:58:28;;;;;;;28.80;23.90;;;10.20;99.90;;;;;;4937561;28;94629;-33
2022/04/14 03:00:54;;;;;;;34.50;25.88;;;10.20;99.90;;;;;;4936685;28;94817;-37
2022/04/14 03:03:23;;;;;;;28.40;22.95;;;10.10;99.90;;;;;;4936845;28;93560;-35
2022/04/14 03:05:49;;;;;;;31.80;24.80;;;10.10;99.90;;;;;;4936340;28;93209;-35
2022/04/14 03:08:15;;;;;;;31.50;24.13;;;10.10;99.90;;;;;;4936872;28;95521;-34
2022/04/14 03:10:41;;;;;;;27.33;24.27;;;10.10;99.90;;;;;;4936321;28;95633;-33
2022/04/14 03:13:06;;;;;;;30.55;25.48;;;10.10;99.90;;;;;;4937434;28;92354;-37
2022/04/14 03:15:32;;;;;;;31.27;23.95;;;10.00;99.90;;;;;;4936298;28;92665;-36
2022/04/14 03:17:57;;;;;;;28.10;24.40;;;10.00;99.90;;;;;;4937056;28;94655;-35
2022/04/14 03:20:23;;;;;;;36.55;24.75;;;10.00;99.90;;;;;;4936850;28;95106;-35
2022/04/14 03:22:49;;;;;;;30.63;25.55;;;10.00;99.90;;;;;;4936838;28;92725;-34
2022/04/14 03:25:14;;;;;;;31.70;27.05;;;10.00;99.90;;;;;;4936994;28;92403;-35
2022/04/14 03:27:40;;;;;;;34.03;26.73;;;10.00;99.90;;;;;;4935464;28;94729;-33
2022/04/14 03:30:07;;;;;;;28.73;24.88;;;10.10;99.90;;;;;;4936780;28;94636;-34
2022/04/14 03:32:38;;;;;;;28.05;24.80;;;10.00;99.90;;;;;;4936759;28;93045;-34
2022/04/14 03:35:04;;;;;;;33.50;25.20;;;10.00;99.90;;;;;;4919738;28;93741;-33
2022/04/14 03:37:30;;;;;;;33.22;27.25;;;10.00;99.90;;;;;;4935612;28;95760;-33
2022/04/14 03:39:55;;;;;;;36.22;26.52;;;10.00;99.90;;;;;;4936148;28;94602;-37
2022/04/14 03:42:21;;;;;;;30.17;24.92;;;10.00;99.90;;;;;;4937322;28;92801;-37
2022/04/14 03:44:46;;;;;;;34.35;28.05;;;10.00;99.90;;;;;;4939922;28;94699;-38
2022/04/14 03:47:12;;;;;;;35.55;28.52;;;10.00;99.90;;;;;;4940006;28;94775;-35
2022/04/14 03:49:37;;;;;;;31.60;26.33;;;9.90;99.90;;;;;;4939508;28;94847;-39
2022/04/14 03:52:03;;;;;;;29.85;26.52;;;9.90;99.90;;;;;;4940772;28;92166;-34
2022/04/14 03:54:29;;;;;;;32.08;26.20;;;9.90;99.90;;;;;;4939858;28;93950;-34
2022/04/14 03:56:54;;;;;;;29.00;25.77;;;9.90;99.90;;;;;;4939596;28;96081;-37
2022/04/14 03:59:20;;;;;;;29.35;26.02;;;9.90;99.90;;;;;;4939286;28;95670;-36
2022/04/14 04:01:46;;;;;;;34.30;28.80;;;9.80;99.90;;;;;;4939774;28;93311;-35
2022/04/14 04:04:11;;;;;;;31.60;27.90;;;9.80;99.90;;;;;;4939732;28;92746;-34
2022/04/14 04:06:37;;;;;;;30.23;25.90;;;9.80;99.90;;;;;;4938713;28;94682;-34
2022/04/14 04:09:03;;;;;;;31.98;25.98;;;9.70;99.90;;;;;;4939886;28;94211;-38
2022/04/14 04:11:29;;;;;;;28.80;25.63;;;9.70;99.90;;;;;;4939532;28;93080;-33
2022/04/14 04:13:54;;;;;;;32.33;25.13;;;9.70;99.90;;;;;;4940502;28;93259;-35
2022/04/14 04:16:20;;;;;;;37.17;26.90;;;9.70;99.90;;;;;;4938983;28;94932;-35
2022/04/14 04:18:45;;;;;;;33.10;24.48;;;9.60;99.90;;;;;;4939015;28;94696;-34
2022/04/14 04:21:11;;;;;;;32.78;27.42;;;9.60;99.90;;;;;;4939637;28;94421;-35
2022/04/14 04:23:36;;;;;;;30.95;27.67;;;9.60;99.90;;;;;;4939186;28;92133;-35
2022/04/14 04:26:02;;;;;;;33.58;27.75;;;9.60;99.90;;;;;;4939609;28;94730;-38
2022/04/14 04:28:30;;;;;;;31.58;26.90;;;9.50;99.90;;;;;;4938770;28;94229;-38
2022/04/14 04:30:56;;;;;;;36.90;29.05;;;9.40;99.90;;;;;;4938489;28;92857;-35
2022/04/14 04:33:22;;;;;;;35.35;28.02;;;9.40;99.90;;;;;;4939370;28;94146;-35
2022/04/14 04:35:49;;;;;;;37.28;27.77;;;9.30;99.90;;;;;;4938255;28;95050;-32
2022/04/14 04:38:15;;;;;;;34.03;28.70;;;9.30;99.90;;;;;;4939316;28;94508;-36
2022/04/14 04:40:41;;;;;;;34.42;29.30;;;9.30;99.90;;;;;;4938967;28;94257;-37
2022/04/14 04:43:06;;;;;;;35.17;27.77;;;9.20;99.90;;;;;;4938675;28;93400;-35
2022/04/14 04:45:32;;;;;;;31.90;26.90;;;9.10;99.90;;;;;;4938232;28;95721;-35
2022/04/14 04:47:57;;;;;;;32.95;26.73;;;9.00;99.90;;;;;;4938727;28;95089;-36
2022/04/14 04:50:23;;;;;;;33.20;25.88;;;9.00;99.90;;;;;;4938795;28;94521;-36
2022/04/14 04:52:48;;;;;;;37.65;27.35;;;8.90;99.90;;;;;;4938980;28;94360;-35
2022/04/14 04:55:14;;;;;;;32.17;26.33;;;8.90;99.90;;;;;;4937482;28;95006;-36
2022/04/14 04:57:39;;;;;;;37.25;25.88;;;8.80;99.90;;;;;;4938777;28;94938;-33
2022/04/14 05:00:06;;;;;;;34.63;27.75;;;8.80;99.90;;;;;;4939021;28;94511;-33
2022/04/14 05:02:31;;;;;;;31.60;26.35;;;8.80;99.90;;;;;;4939894;28;92437;-35
2022/04/14 05:04:57;;;;;;;32.25;27.48;;;8.80;99.90;;;;;;4937809;28;96852;-36
2022/04/14 05:07:23;;;;;;;31.58;28.10;;;8.80;99.90;;;;;;4938513;28;94615;-36
2022/04/14 05:09:48;;;;;;;28.75;25.65;;;8.80;99.90;;;;;;4938453;28;94263;-34
2022/04/14 05:12:14;;;;;;;31.83;26.00;;;8.80;99.90;;;;;;4937991;28;93338;-32
2022/04/14 05:14:39;;;;;;;39.10;25.85;;;8.70;99.90;;;;;;4938599;28;94519;-34
2022/04/14 05:17:05;;;;;;;31.38;25.98;;;8.70;99.90;;;;;;4937962;28;98070;-36
2022/04/14 05:19:31;;;;;;;36.15;27.15;;;8.70;99.90;;;;;;4939337;28;93419;-38
2022/04/14 05:21:57;;;;;;;29.98;25.30;;;8.70;99.90;;;;;;4938502;28;93064;-33
2022/04/14 05:24:23;;;;;;;28.80;25.48;;;8.70;99.90;;;;;;4938318;28;94770;-35
2022/04/14 05:26:48;;;;;;;30.00;25.45;;;8.70;99.90;;;;;;4921207;28;94565;-33
2022/04/14 05:29:14;;;;;;;31.75;25.95;;;8.60;99.90;;;;;;4937996;28;93952;-34
2022/04/14 05:31:39;;;;;;;32.10;25.63;;;8.60;99.90;;;;;;4938068;28;94720;-37
2022/04/14 05:34:05;;;;;;;29.02;25.90;;;8.50;99.90;;;;;;4937676;28;95375;-33
2022/04/14 05:36:30;;;;;;;32.50;28.60;;;8.60;99.90;;;;;;4938105;28;95676;-37
2022/04/14 05:38:57;;;;;;;41.45;28.50;;;8.60;99.90;;;;;;4937935;28;93288;-35
2022/04/14 05:41:23;;;;;;;36.92;27.98;;;8.70;99.90;;;;;;4937750;28;94227;-33
2022/04/14 05:43:48;;;;;;;34.60;30.90;;;8.80;99.90;;;;;;4937237;28;94668;-34
2022/04/14 05:46:14;;;;;;;35.40;30.58;;;8.90;99.90;;;;;;4937900;28;94636;-34
2022/04/14 05:48:40;;;;;;;37.25;29.60;;;9.00;99.90;;;;;;4938669;28;92147;-36
2022/04/14 05:51:05;;;;;;;44.53;33.20;;;9.20;99.90;;;;;;4938472;28;94037;-33
2022/04/14 05:53:31;;;;;;;41.53;34.08;;;9.40;99.90;;;;;;4937152;28;95196;-38
2022/04/14 05:55:56;;;;;;;43.17;33.22;;;9.50;99.90;;;;;;4937542;28;94250;-35
2022/04/14 05:58:22;;;;;;;38.60;34.42;;;9.60;99.90;;;;;;4937953;28;93366;-33
2022/04/14 06:00:48;;;;;;;37.42;30.85;;;9.70;99.90;;;;;;4937664;28;94866;-33
2022/04/14 06:03:14;;;;;;;43.03;34.50;;;9.70;99.90;;;;;;4937420;28;94889;-34
2022/04/14 06:05:39;;;;;;;41.17;32.42;;;9.80;99.90;;;;;;4937098;28;94503;-37
2022/04/14 06:08:05;;;;;;;43.60;34.40;;;9.80;99.90;;;;;;4938028;28;93745;-35
2022/04/14 06:10:31;;;;;;;37.15;33.35;;;9.90;99.90;;;;;;4937336;28;93202;-36
2022/04/14 06:12:57;;;;;;;42.63;34.60;;;10.00;99.90;;;;;;4937743;28;94818;-34
2022/04/14 06:15:25;;;;;;;44.20;35.75;;;10.10;99.90;;;;;;4937110;28;94782;-35
2022/04/14 06:17:51;;;;;;;44.63;35.38;;;10.20;99.90;;;;;;4937097;28;94270;-33
2022/04/14 06:20:17;;;;;;;46.72;34.00;;;10.30;99.90;;;;;;4920150;28;94390;-34
2022/04/14 06:22:44;;;;;;;40.97;34.00;;;10.40;99.90;;;;;;4936361;28;95454;-37
2022/04/14 06:25:16;;;;;;;45.70;37.28;;;10.50;99.90;;;;;;4918947;28;97081;-35
2022/04/14 06:27:43;;;;;;;42.83;34.08;;;10.60;99.90;;;;;;4936641;28;94571;-37
2022/04/14 06:30:11;;;;;;;46.65;36.33;;;10.70;99.90;;;;;;4937185;28;93026;-36
2022/04/14 06:32:37;;;;;;;44.70;36.43;;;10.70;99.90;;;;;;4937430;28;94715;-37
2022/04/14 06:35:04;;;;;;;56.90;36.80;;;10.90;99.90;;;;;;4937486;28;94418;-35
2022/04/14 06:37:29;;;;;;;47.95;36.08;;;10.90;99.90;;;;;;4937392;28;93454;-34
2022/04/14 06:39:55;;;;;;;47.65;35.55;;;11.10;99.90;;;;;;4937431;28;93741;-38
2022/04/14 06:42:24;;;;;;;47.42;37.13;;;11.20;99.90;;;;;;4936752;28;94762;-33
2022/04/14 06:44:49;;;;;;;45.03;35.88;;;11.40;99.90;;;;;;4936560;28;95154;-36
2022/04/14 06:47:15;;;;;;;46.38;35.85;;;11.60;99.90;;;;;;4937609;28;93400;-33
2022/04/14 06:49:41;;;;;;;47.75;37.20;;;11.80;99.90;;;;;;4936776;28;92754;-34
2022/04/14 06:52:06;;;;;;;43.85;35.60;;;11.90;99.90;;;;;;4937341;28;94616;-34
2022/04/14 06:54:33;;;;;;;44.35;34.35;;;12.00;99.90;;;;;;4937471;28;94418;-34
2022/04/14 06:56:59;;;;;;;45.63;35.35;;;12.20;99.90;;;;;;4936881;28;92647;-35
2022/04/14 06:59:25;;;;;;;41.08;33.22;;;12.50;99.90;;;;;;4937470;28;93015;-34
2022/04/14 07:01:50;;;;;;;43.67;35.65;;;12.50;99.90;;;;;;4936739;28;95356;-34
2022/04/14 07:04:16;;;;;;;42.92;34.45;;;12.80;99.90;;;;;;4936872;28;94340;-36
2022/04/14 07:06:41;;;;;;;38.13;32.10;;;13.10;99.90;;;;;;4937476;28;93027;-35
2022/04/14 07:09:07;;;;;;;42.30;30.20;;;13.30;99.90;;;;;;4936907;28;92154;-33
2022/04/14 07:11:32;;;;;;;40.92;28.65;;;13.50;99.90;;;;;;4935233;28;96011;-35
2022/04/14 07:13:59;;;;;;;40.05;30.50;;;13.70;99.90;;;;;;4934463;28;94507;-35
2022/04/14 07:16:25;;;;;;;40.75;29.58;;;13.80;99.90;;;;;;4934760;28;93566;-35
2022/04/14 07:18:50;;;;;;;40.15;30.40;;;14.00;99.90;;;;;;4934906;28;92213;-32
2022/04/14 07:21:16;;;;;;;37.30;28.80;;;14.30;99.90;;;;;;4939208;28;95113;-35
2022/04/14 07:23:42;;;;;;;43.45;30.25;;;14.50;99.90;;;;;;4953931;28;94481;-34
2022/04/14 07:26:07;;;;;;;35.17;28.15;;;14.60;99.90;;;;;;4955211;28;93073;-37
2022/04/14 07:28:33;;;;;;;33.28;26.23;;;14.90;99.90;;;;;;4956337;28;93054;-35
2022/04/14 07:30:59;;;;;;;44.05;30.08;;;14.90;99.90;;;;;;4955871;28;94659;-35
2022/04/14 07:33:24;;;;;;;35.63;25.20;;;14.90;99.90;;;;;;4956087;28;95213;-33
2022/04/14 07:35:52;;;;;;;28.50;23.17;;;15.10;99.90;;;;;;4956227;28;93070;-34
2022/04/14 07:38:18;;;;;;;27.45;21.98;;;15.40;99.90;;;;;;4955847;28;93252;-36
2022/04/14 07:40:44;;;;;;;27.65;22.58;;;15.60;99.90;;;;;;4938025;28;94699;-36
2022/04/14 07:43:09;;;;;;;30.00;21.13;;;15.80;99.90;;;;;;4956555;28;94723;-33
2022/04/14 07:45:35;;;;;;;26.33;21.92;;;16.00;99.90;;;;;;4956010;28;93093;-33
2022/04/14 07:48:01;;;;;;;26.17;20.45;;;15.90;99.90;;;;;;4957022;28;93959;-33
2022/04/14 07:50:26;;;;;;;18.55;16.65;;;16.00;99.90;;;;;;4938028;28;94738;-35
2022/04/14 07:52:55;;;;;;;25.42;17.63;;;16.00;99.90;;;;;;4937910;28;94854;-36
2022/04/14 07:55:27;;;;;;;19.70;16.80;;;16.30;99.90;;;;;;4956564;28;94264;-36
2022/04/14 07:57:54;;;;;;;21.73;17.65;;;16.50;99.90;;;;;;4955979;28;92821;-32
2022/04/14 08:00:21;;;;;;;19.80;14.57;;;16.90;99.90;;;;;;4955556;28;95963;-36
2022/04/14 08:02:48;;;;;;;23.67;17.65;;;16.80;99.90;;;;;;4955686;28;95646;-34
2022/04/14 08:05:14;;;;;;;21.70;16.67;;;17.00;99.90;;;;;;4955302;28;93791;-36
2022/04/14 08:07:40;;;;;;;18.20;15.15;;;17.10;99.90;;;;;;4955756;28;94227;-35
2022/04/14 08:10:06;;;;;;;17.88;15.68;;;17.10;99.90;;;;;;4956127;28;95041;-34
2022/04/14 08:12:31;;;;;;;19.80;15.32;;;17.30;99.90;;;;;;4955370;28;94646;-38
2022/04/14 08:14:57;;;;;;;16.05;14.27;;;17.30;99.90;;;;;;4955992;28;92057;-35
2022/04/14 08:17:22;;;;;;;19.45;14.85;;;17.30;99.90;;;;;;4955844;28;94520;-34
2022/04/14 08:19:48;;;;;;;14.68;12.90;;;17.60;99.90;;;;;;4955658;28;94723;-36
2022/04/14 08:22:13;;;;;;;18.73;15.27;;;17.60;99.90;;;;;;4955515;28;93188;-35
2022/04/14 08:24:39;;;;;;;14.85;13.30;;;17.90;99.90;;;;;;4955139;28;94001;-35
2022/04/14 08:27:05;;;;;;;16.33;14.38;;;17.80;99.90;;;;;;4955778;28;93133;-35
2022/04/14 08:29:30;;;;;;;20.25;15.40;;;18.00;99.90;;;;;;4956593;28;93976;-37
2022/04/14 08:31:57;;;;;;;20.88;17.55;;;18.10;99.90;;;;;;4958932;28;94376;-35
2022/04/14 08:34:23;;;;;;;20.17;16.33;;;18.40;99.90;;;;;;4958875;28;92203;-36
2022/04/14 08:36:52;;;;;;;21.35;17.02;;;18.70;99.90;;;;;;4958895;28;94128;-36
2022/04/14 08:39:18;;;;;;;21.23;16.25;;;18.20;99.90;;;;;;4959210;28;94760;-37
2022/04/14 08:41:47;;;;;;;19.35;15.32;;;18.20;99.90;;;;;;4958492;28;94574;-36
2022/04/14 08:44:15;;;;;;;36.13;17.38;;;18.40;99.90;;;;;;4958704;28;94316;-37
2022/04/14 08:46:42;;;;;;;21.45;15.18;;;18.40;99.90;;;;;;4958069;28;92879;-35
2022/04/14 08:49:09;;;;;;;25.13;17.88;;;18.80;99.90;;;;;;4958757;28;95716;-36
2022/04/14 08:51:37;;;;;;;14.25;12.82;;;18.80;99.90;;;;;;4958641;28;94530;-37
2022/04/14 08:54:03;;;;;;;19.40;14.68;;;19.00;99.90;;;;;;4958767;28;94142;-35
2022/04/14 08:56:30;;;;;;;16.20;12.23;;;19.40;99.90;;;;;;4957910;28;92157;-34
2022/04/14 08:58:56;;;;;;;20.88;13.98;;;19.60;99.90;;;;;;4958562;28;94835;-38
2022/04/14 09:01:26;;;;;;;16.88;14.25;;;19.50;96.90;;;;;;4958288;28;95697;-34
2022/04/14 09:03:58;;;;;;;18.95;13.15;;;19.20;99.90;;;;;;4958069;28;94420;-36
2022/04/14 09:06:27;;;;;;;14.93;13.18;;;19.10;95.20;;;;;;4958473;28;93826;-38
2022/04/14 09:08:52;;;;;;;19.08;14.05;;;19.40;99.90;;;;;;4958609;28;95091;-35
2022/04/14 09:11:18;;;;;;;15.57;13.02;;;19.40;99.90;;;;;;4957688;28;94524;-34
2022/04/14 09:13:45;;;;;;;14.18;12.45;;;19.70;99.30;;;;;;4958166;28;93909;-35
2022/04/14 09:16:11;;;;;;;14.57;12.60;;;19.70;90.60;;;;;;4957532;28;93879;-35
2022/04/14 09:18:36;;;;;;;19.92;14.95;;;19.70;98.90;;;;;;4957539;28;93998;-35
2022/04/14 09:21:06;;;;;;;13.93;12.52;;;19.30;90.30;;;;;;4958394;28;94932;-36
2022/04/14 09:23:32;;;;;;;17.20;12.95;;;19.40;86.40;;;;;;4958151;28;94126;-38
2022/04/14 09:26:13;;;;;;;12.13;10.82;;;19.60;96.80;;;;;;4957424;28;93074;-36
2022/04/14 09:29:00;;;;;;;14.45;12.80;;;19.60;91.70;;;;;;4957362;28;94783;-36
2022/04/14 09:31:27;;;;;;;14.00;12.57;;;19.70;82.10;;;;;;4958075;28;94596;-38
2022/04/14 09:33:53;;;;;;;12.18;10.98;;;19.60;99.90;;;;;;4957401;28;93185;-36
2022/04/14 09:36:23;;;;;;;13.85;10.93;;;19.70;99.90;;;;;;4958452;28;93517;-35
2022/04/14 09:39:00;;;;;;;11.18;10.07;;;20.00;91.00;;;;;;4957562;28;96439;-34
2022/04/14 09:41:37;;;;;;;11.13;9.73;;;19.50;87.80;;;;;;4957243;28;95786;-37
2022/04/14 09:44:05;;;;;;;13.13;11.65;;;19.20;93.40;;;;;;4958181;28;93361;-35
2022/04/14 09:46:31;;;;;;;;;;;18.90;99.30;;;;;;4957409;28;92118;-35
2022/04/14 09:49:09;;;;;;;12.15;10.90;;;18.70;92.20;;;;;;4959977;28;94918;-36
2022/04/14 09:51:39;;;;;;;10.88;9.38;;;18.70;90.50;;;;;;4957309;28;94704;-38
2022/04/14 09:54:14;;;;;;;17.88;11.43;;;19.20;86.90;;;;;;4958290;28;94742;-35
2022/04/14 09:56:42;;;;;;;12.00;9.50;;;19.60;91.30;;;;;;4957486;28;94127;-35
2022/04/14 09:59:08;;;;;;;19.30;11.90;;;20.20;82.80;;;;;;4957779;28;94685;-39
2022/04/14 10:01:34;;;;;;;11.40;10.20;;;20.20;81.30;;;;;;4957279;28;94716;-37
2022/04/14 10:04:01;;;;;;;22.42;11.57;;;20.00;82.30;;;;;;4956606;28;95323;-36
2022/04/14 10:06:26;;;;;;;17.35;10.82;;;19.90;83.10;;;;;;4957244;28;94596;-34
2022/04/14 10:08:52;;;;;;;14.98;9.73;;;20.40;76.40;;;;;;4957251;28;94275;-36
2022/04/14 10:11:29;;;;;;;15.90;10.27;;;20.20;76.00;;;;;;4957281;28;95210;-34
2022/04/14 10:14:09;;;;;;;10.87;8.40;;;20.40;74.50;;;;;;4957077;28;94633;-35
2022/04/14 10:16:37;;;;;;;13.93;8.98;;;19.50;74.10;;;;;;4957462;28;92112;-35
2022/04/14 10:19:03;;;;;;;7.28;6.47;;;20.00;94.30;;;;;;4958151;28;95177;-34
2022/04/14 10:21:29;;;;;;;10.77;9.02;;;20.60;91.10;;;;;;4958171;28;95026;-35
2022/04/14 10:23:55;;;;;;;18.25;9.80;;;20.70;79.00;;;;;;4957831;28;93960;-36
2022/04/14 10:26:21;;;;;;;11.68;9.70;;;19.80;87.20;;;;;;4958196;28;93531;-35
2022/04/14 10:28:48;;;;;;;11.18;10.00;;;19.90;89.00;;;;;;4955986;28;95504;-38
2022/04/14 10:31:17;;;;;;;11.82;9.40;;;19.60;92.20;;;;;;4956187;28;96103;-36
2022/04/14 10:33:48;;;;;;;7.65;6.18;;;19.50;78.90;;;;;;4957564;28;93292;-34
2022/04/14 10:36:13;;;;;;;10.00;7.68;;;19.30;72.90;;;;;;4957393;28;92967;-33
2022/04/14 10:38:41;;;;;;;10.52;7.13;;;19.70;82.70;;;;;;4957497;28;94822;-37
2022/04/14 10:41:19;;;;;;;7.93;5.85;;;19.90;79.80;;;;;;4939568;28;94576;-34
2022/04/14 10:43:46;;;;;;;9.30;7.05;;;19.80;76.70;;;;;;4957172;28;93432;-34
2022/04/14 10:46:15;;;;;;;12.13;8.00;;;20.30;74.60;;;;;;4957492;28;91451;-34
2022/04/14 10:48:41;;;;;;;14.43;9.48;;;20.60;73.80;;;;;;4957595;28;94703;-35
2022/04/14 10:51:28;;;;;;;12.75;10.25;;;20.70;73.40;;;;;;4957128;28;94379;-36
2022/04/14 10:54:01;;;;;;;11.10;9.30;;;20.40;66.60;;;;;;4956524;28;94441;-35
2022/04/14 10:56:42;;;;;;;8.20;7.45;;;19.80;76.40;;;;;;4956887;28;94406;-33
2022/04/14 10:59:16;;;;;;;8.38;7.55;;;19.30;93.30;;;;;;4957124;28;94560;-37
2022/04/14 11:01:50;;;;;;;6.97;5.63;;;19.10;91.90;;;;;;4957047;28;95086;-34
2022/04/14 11:04:28;;;;;;;5.90;5.22;;;19.30;97.00;;;;;;4956852;28;94950;-35
2022/04/14 11:06:58;;;;;;;7.90;7.07;;;19.40;88.50;;;;;;4956466;28;93159;-36
2022/04/14 11:09:45;;;;;;;8.63;7.72;;;19.20;76.70;;;;;;4957306;28;94927;-39
2022/04/14 11:12:40;;;;;;;11.45;7.63;;;19.00;86.50;;;;;;4957523;28;94581;-39
2022/04/14 11:15:08;;;;;;;8.82;7.38;;;18.90;90.80;;;;;;4957846;28;93373;-35
2022/04/14 11:17:48;;;;;;;7.97;7.25;;;18.40;96.10;;;;;;4948117;28;92912;-35
2022/04/14 11:20:14;;;;;;;7.15;6.45;;;18.30;95.30;;;;;;4939722;28;95810;-36
2022/04/14 11:23:11;;;;;;;8.07;6.50;;;18.20;99.90;;;;;;4936576;28;95446;-33
2022/04/14 11:25:43;;;;;;;7.50;5.90;;;18.20;99.90;;;;;;4937678;28;94373;-37
2022/04/14 11:28:31;;;;;;;5.40;4.95;;;18.00;99.90;;;;;;4936952;28;94406;-35
2022/04/14 11:31:01;;;;;;;6.85;5.18;;;17.60;99.90;;;;;;4937026;28;93637;-34
2022/04/14 11:33:28;;;;;;;7.78;4.53;;;18.40;99.90;;;;;;4936824;28;94564;-34
2022/04/14 11:36:05;;;;;;;7.03;4.07;;;18.50;95.70;;;;;;4938358;28;92799;-34
2022/04/14 11:38:56;;;;;;;9.70;6.38;;;19.20;97.20;;;;;;4942835;28;93303;-34
2022/04/14 11:41:31;;;;;;;6.65;4.45;;;19.10;73.70;;;;;;4946389;28;94521;-35
2022/04/14 11:43:57;;;;;;;4.97;4.57;;;19.30;69.50;;;;;;4954492;28;94336;-37
2022/04/14 11:46:23;;;;;;;4.65;3.88;;;19.10;79.60;;;;;;4954216;28;95392;-36
2022/04/14 11:48:49;;;;;;;3.58;3.22;;;18.70;80.40;;;;;;4955237;28;93571;-36
2022/04/14 11:51:19;;;;;;;5.10;2.97;;;18.50;84.90;;;;;;4955497;28;94973;-33
2022/04/14 11:53:45;;;;;;;7.53;4.05;;;18.10;93.60;;;;;;4954060;28;96488;-37
2022/04/14 11:56:18;;;;;;;7.28;3.42;;;18.50;91.60;;;;;;4954601;28;93762;-33
2022/04/14 11:58:44;;;;;;;4.07;3.60;;;18.80;83.20;;;;;;4954165;28;94691;-41
2022/04/14 12:01:11;;;;;;;2.83;2.47;;;19.40;82.50;;;;;;4953209;28;94666;-35
2022/04/14 12:03:36;;;;;;;3.63;3.33;;;19.20;82.90;;;;;;4956159;28;94500;-35
2022/04/14 12:06:06;;;;;;;3.75;3.05;;;19.50;83.80;;;;;;4957790;28;93182;-34
2022/04/14 12:08:33;;;;;;;6.20;4.03;;;19.70;76.90;;;;;;4957985;28;94537;-37
2022/04/14 12:11:13;;;;;;;6.10;3.85;;;19.00;83.50;;;;;;4956558;28;95565;-36
2022/04/14 12:13:40;;;;;;;5.25;4.18;;;18.80;84.80;;;;;;4957087;28;95874;-36
2022/04/14 12:16:11;;;;;;;4.05;3.65;;;18.50;88.70;;;;;;4958110;28;94270;-35
2022/04/14 12:18:39;;;;;;;7.97;4.10;;;18.70;90.90;;;;;;4957251;28;92275;-37
2022/04/14 12:21:06;;;;;;;4.35;3.20;;;18.50;81.20;;;;;;4957981;28;94737;-37
2022/04/14 12:23:32;;;;;;;6.47;3.17;;;18.20;90.90;;;;;;4939528;28;95751;-36
2022/04/14 12:25:58;;;;;;;3.15;2.92;;;18.10;92.40;;;;;;4957523;28;94904;-38
2022/04/14 12:28:24;;;;;;;3.20;2.83;;;18.00;90.00;;;;;;5001671;22;92997;-38
2022/04/14 12:30:50;;;;;;;4.22;3.53;;;18.00;95.10;;;;;;4959594;28;94446;-34
2022/04/14 12:33:27;;;;;;;3.97;3.22;;;17.90;98.90;;;;;;4977012;28;93819;-36